sensor_id;sensor_type;location;lat;lon;timestamp;P1;durP1;ratioP1;P2;durP2;ratioP2
15614;SDS011;7907;51.368;6.730;2022-12-07T00:01:38;4.18;;;3.17;;
15614;SDS011;7907;51.368;6.730;2022-12-07T00:04:07;6.90;;;3.22;;
15614;SDS011;7907;51.368;6.730;2022-12-07T00:06:37;7.20;;;3.17;;
15614;SDS011;7907;51.368;6.730;2022-12-07T00:09:08;10.65;;;3.47;;
15614;SDS011;7907;51.368;6.730;2022-12-07T00:11:37;10.18;;;5.28;;
15614;SDS011;7907;51.368;6.730;2022-12-07T00:14:04;11.30;;;5.77;;
15614;SDS011;7907;51.368;6.730;2022-12-07T00:16:33;15.98;;;7.38;;
15614;SDS011;7907;51.368;6.730;2022-12-07T00:19:01;12.02;;;6.82;;
15614;SDS011;7907;51.368;6.730;2022-12-07T00:21:31;9.05;;;3.97;;
15614;SDS011;7907;51.368;6.730;2022-12-07T00:23:59;7.25;;;4.03;;
15614;SDS011;7907;51.368;6.730;2022-12-07T00:26:29;8.60;;;5.82;;
15614;SDS011;7907;51.368;6.730;2022-12-07T00:28:58;56.60;;;20.17;;
15614;SDS011;7907;51.368;6.730;2022-12-07T00:31:27;28.67;;;12.23;;
15614;SDS011;7907;51.368;6.730;2022-12-07T00:33:55;39.05;;;13.35;;
15614;SDS011;7907;51.368;6.730;2022-12-07T00:36:23;43.85;;;16.77;;
15614;SDS011;7907;51.368;6.730;2022-12-07T00:38:52;37.75;;;13.25;;
15614;SDS011;7907;51.368;6.730;2022-12-07T00:41:34;40.53;;;17.00;;
15614;SDS011;7907;51.368;6.730;2022-12-07T00:44:02;32.40;;;9.80;;
15614;SDS011;7907;51.368;6.730;2022-12-07T00:46:29;22.85;;;9.57;;
15614;SDS011;7907;51.368;6.730;2022-12-07T00:48:56;29.30;;;10.90;;
15614;SDS011;7907;51.368;6.730;2022-12-07T00:51:33;46.45;;;15.05;;
15614;SDS011;7907;51.368;6.730;2022-12-07T00:54:00;14.63;;;6.10;;
15614;SDS011;7907;51.368;6.730;2022-12-07T00:56:27;22.20;;;7.72;;
15614;SDS011;7907;51.368;6.730;2022-12-07T00:58:57;23.88;;;6.65;;
15614;SDS011;7907;51.368;6.730;2022-12-07T01:01:26;24.17;;;7.77;;
15614;SDS011;7907;51.368;6.730;2022-12-07T01:03:54;13.75;;;5.22;;
15614;SDS011;7907;51.368;6.730;2022-12-07T01:06:22;15.68;;;8.10;;
15614;SDS011;7907;51.368;6.730;2022-12-07T01:08:50;21.20;;;7.50;;
15614;SDS011;7907;51.368;6.730;2022-12-07T01:11:18;8.57;;;5.35;;
15614;SDS011;7907;51.368;6.730;2022-12-07T01:13:47;5.53;;;3.45;;
15614;SDS011;7907;51.368;6.730;2022-12-07T01:16:18;16.60;;;6.60;;
15614;SDS011;7907;51.368;6.730;2022-12-07T01:18:46;6.83;;;4.87;;
15614;SDS011;7907;51.368;6.730;2022-12-07T01:21:15;7.20;;;5.30;;
15614;SDS011;7907;51.368;6.730;2022-12-07T01:23:43;6.90;;;4.35;;
15614;SDS011;7907;51.368;6.730;2022-12-07T01:26:11;9.05;;;4.00;;
15614;SDS011;7907;51.368;6.730;2022-12-07T01:28:39;8.40;;;3.60;;
15614;SDS011;7907;51.368;6.730;2022-12-07T01:31:08;8.65;;;4.85;;
15614;SDS011;7907;51.368;6.730;2022-12-07T01:33:39;6.82;;;3.80;;
15614;SDS011;7907;51.368;6.730;2022-12-07T01:36:07;14.93;;;6.72;;
15614;SDS011;7907;51.368;6.730;2022-12-07T01:38:41;13.77;;;5.40;;
15614;SDS011;7907;51.368;6.730;2022-12-07T01:41:08;4.28;;;2.67;;
15614;SDS011;7907;51.368;6.730;2022-12-07T01:43:36;12.67;;;4.90;;
15614;SDS011;7907;51.368;6.730;2022-12-07T01:46:03;5.45;;;3.47;;
15614;SDS011;7907;51.368;6.730;2022-12-07T01:48:31;4.57;;;3.73;;
15614;SDS011;7907;51.368;6.730;2022-12-07T01:51:04;6.75;;;4.53;;
15614;SDS011;7907;51.368;6.730;2022-12-07T01:53:34;9.60;;;4.60;;
15614;SDS011;7907;51.368;6.730;2022-12-07T01:56:04;9.05;;;4.35;;
15614;SDS011;7907;51.368;6.730;2022-12-07T01:58:33;7.45;;;5.05;;
15614;SDS011;7907;51.368;6.730;2022-12-07T02:01:01;5.72;;;4.15;;
15614;SDS011;7907;51.368;6.730;2022-12-07T02:03:30;5.07;;;3.50;;
15614;SDS011;7907;51.368;6.730;2022-12-07T02:06:03;6.53;;;4.32;;
15614;SDS011;7907;51.368;6.730;2022-12-07T02:08:32;4.43;;;3.72;;
15614;SDS011;7907;51.368;6.730;2022-12-07T02:10:59;11.10;;;5.93;;
15614;SDS011;7907;51.368;6.730;2022-12-07T02:13:28;3.22;;;2.80;;
15614;SDS011;7907;51.368;6.730;2022-12-07T02:16:04;6.20;;;4.45;;
15614;SDS011;7907;51.368;6.730;2022-12-07T02:18:48;5.13;;;4.18;;
15614;SDS011;7907;51.368;6.730;2022-12-07T02:21:38;27.58;;;9.73;;
15614;SDS011;7907;51.368;6.730;2022-12-07T02:24:18;26.10;;;10.93;;
15614;SDS011;7907;51.368;6.730;2022-12-07T02:27:06;12.00;;;5.25;;
15614;SDS011;7907;51.368;6.730;2022-12-07T02:29:44;8.25;;;4.35;;
15614;SDS011;7907;51.368;6.730;2022-12-07T02:32:16;4.63;;;3.38;;
15614;SDS011;7907;51.368;6.730;2022-12-07T02:34:51;8.20;;;4.95;;
15614;SDS011;7907;51.368;6.730;2022-12-07T02:37:29;6.45;;;4.38;;
15614;SDS011;7907;51.368;6.730;2022-12-07T02:40:04;9.98;;;3.70;;
15614;SDS011;7907;51.368;6.730;2022-12-07T02:42:36;9.77;;;5.82;;
15614;SDS011;7907;51.368;6.730;2022-12-07T02:45:08;6.20;;;3.75;;
15614;SDS011;7907;51.368;6.730;2022-12-07T02:47:39;8.63;;;4.28;;
15614;SDS011;7907;51.368;6.730;2022-12-07T02:50:07;7.70;;;3.85;;
15614;SDS011;7907;51.368;6.730;2022-12-07T02:52:35;6.35;;;3.33;;
15614;SDS011;7907;51.368;6.730;2022-12-07T02:55:03;8.63;;;5.43;;
15614;SDS011;7907;51.368;6.730;2022-12-07T02:57:35;13.73;;;5.57;;
15614;SDS011;7907;51.368;6.730;2022-12-07T03:00:17;3.75;;;3.05;;
15614;SDS011;7907;51.368;6.730;2022-12-07T03:02:51;5.22;;;3.35;;
15614;SDS011;7907;51.368;6.730;2022-12-07T03:05:26;6.03;;;3.72;;
15614;SDS011;7907;51.368;6.730;2022-12-07T03:08:05;5.38;;;2.47;;
15614;SDS011;7907;51.368;6.730;2022-12-07T03:10:39;9.98;;;4.25;;
15614;SDS011;7907;51.368;6.730;2022-12-07T03:13:15;5.20;;;3.53;;
15614;SDS011;7907;51.368;6.730;2022-12-07T03:15:51;5.93;;;3.90;;
15614;SDS011;7907;51.368;6.730;2022-12-07T03:18:24;5.95;;;2.80;;
15614;SDS011;7907;51.368;6.730;2022-12-07T03:21:01;6.88;;;3.63;;
15614;SDS011;7907;51.368;6.730;2022-12-07T03:23:31;5.22;;;3.60;;
15614;SDS011;7907;51.368;6.730;2022-12-07T03:26:00;7.65;;;4.15;;
15614;SDS011;7907;51.368;6.730;2022-12-07T03:28:31;7.63;;;4.72;;
15614;SDS011;7907;51.368;6.730;2022-12-07T03:31:05;2.97;;;2.10;;
15614;SDS011;7907;51.368;6.730;2022-12-07T03:33:39;3.90;;;2.97;;
15614;SDS011;7907;51.368;6.730;2022-12-07T03:36:10;5.50;;;4.28;;
15614;SDS011;7907;51.368;6.730;2022-12-07T03:38:42;3.38;;;2.83;;
15614;SDS011;7907;51.368;6.730;2022-12-07T03:41:18;5.45;;;3.20;;
15614;SDS011;7907;51.368;6.730;2022-12-07T03:43:48;2.78;;;1.45;;
15614;SDS011;7907;51.368;6.730;2022-12-07T03:46:19;3.70;;;2.28;;
15614;SDS011;7907;51.368;6.730;2022-12-07T03:48:54;4.15;;;3.10;;
15614;SDS011;7907;51.368;6.730;2022-12-07T03:51:28;4.05;;;2.92;;
15614;SDS011;7907;51.368;6.730;2022-12-07T03:54:02;8.52;;;4.30;;
15614;SDS011;7907;51.368;6.730;2022-12-07T03:56:35;5.15;;;3.67;;
15614;SDS011;7907;51.368;6.730;2022-12-07T03:59:03;6.05;;;3.95;;
15614;SDS011;7907;51.368;6.730;2022-12-07T04:01:33;8.57;;;4.50;;
15614;SDS011;7907;51.368;6.730;2022-12-07T04:04:00;3.63;;;3.07;;
15614;SDS011;7907;51.368;6.730;2022-12-07T04:06:27;9.32;;;3.92;;
15614;SDS011;7907;51.368;6.730;2022-12-07T04:08:54;4.72;;;3.08;;
15614;SDS011;7907;51.368;6.730;2022-12-07T04:11:21;6.18;;;3.47;;
15614;SDS011;7907;51.368;6.730;2022-12-07T04:13:48;9.90;;;4.50;;
15614;SDS011;7907;51.368;6.730;2022-12-07T04:16:34;5.00;;;3.92;;
15614;SDS011;7907;51.368;6.730;2022-12-07T04:19:01;4.43;;;3.35;;
15614;SDS011;7907;51.368;6.730;2022-12-07T04:21:35;5.90;;;3.53;;
15614;SDS011;7907;51.368;6.730;2022-12-07T04:24:02;5.55;;;3.30;;
15614;SDS011;7907;51.368;6.730;2022-12-07T04:26:29;7.38;;;4.75;;
15614;SDS011;7907;51.368;6.730;2022-12-07T04:28:56;6.20;;;3.72;;
15614;SDS011;7907;51.368;6.730;2022-12-07T04:31:23;2.50;;;1.35;;
15614;SDS011;7907;51.368;6.730;2022-12-07T04:33:52;7.30;;;3.58;;
15614;SDS011;7907;51.368;6.730;2022-12-07T04:36:19;3.33;;;3.03;;
15614;SDS011;7907;51.368;6.730;2022-12-07T04:38:46;3.00;;;2.30;;
15614;SDS011;7907;51.368;6.730;2022-12-07T04:41:15;4.03;;;3.10;;
15614;SDS011;7907;51.368;6.730;2022-12-07T04:43:42;5.57;;;3.42;;
15614;SDS011;7907;51.368;6.730;2022-12-07T04:46:09;0.47;;;0.47;;
15614;SDS011;7907;51.368;6.730;2022-12-07T04:48:36;6.07;;;3.70;;
15614;SDS011;7907;51.368;6.730;2022-12-07T04:51:05;2.78;;;2.35;;
15614;SDS011;7907;51.368;6.730;2022-12-07T04:53:32;4.55;;;2.90;;
15614;SDS011;7907;51.368;6.730;2022-12-07T04:55:59;6.18;;;3.95;;
15614;SDS011;7907;51.368;6.730;2022-12-07T04:58:27;7.97;;;3.88;;
15614;SDS011;7907;51.368;6.730;2022-12-07T05:00:54;3.87;;;3.10;;
15614;SDS011;7907;51.368;6.730;2022-12-07T05:03:21;5.63;;;3.40;;
15614;SDS011;7907;51.368;6.730;2022-12-07T05:05:48;3.22;;;2.20;;
15614;SDS011;7907;51.368;6.730;2022-12-07T05:08:17;6.55;;;2.97;;
15614;SDS011;7907;51.368;6.730;2022-12-07T05:10:44;4.63;;;1.67;;
15614;SDS011;7907;51.368;6.730;2022-12-07T05:13:11;5.13;;;2.83;;
15614;SDS011;7907;51.368;6.730;2022-12-07T05:15:38;5.10;;;3.05;;
15614;SDS011;7907;51.368;6.730;2022-12-07T05:18:05;2.85;;;1.42;;
15614;SDS011;7907;51.368;6.730;2022-12-07T05:20:32;4.82;;;2.88;;
15614;SDS011;7907;51.368;6.730;2022-12-07T05:22:59;3.60;;;2.75;;
15614;SDS011;7907;51.368;6.730;2022-12-07T05:25:28;4.07;;;2.58;;
15614;SDS011;7907;51.368;6.730;2022-12-07T05:27:55;2.60;;;1.90;;
15614;SDS011;7907;51.368;6.730;2022-12-07T05:30:22;3.95;;;2.75;;
15614;SDS011;7907;51.368;6.730;2022-12-07T05:32:49;3.42;;;2.60;;
15614;SDS011;7907;51.368;6.730;2022-12-07T05:35:17;5.75;;;2.80;;
15614;SDS011;7907;51.368;6.730;2022-12-07T05:37:44;5.30;;;3.10;;
15614;SDS011;7907;51.368;6.730;2022-12-07T05:40:11;3.42;;;2.53;;
15614;SDS011;7907;51.368;6.730;2022-12-07T05:42:42;5.95;;;3.50;;
15614;SDS011;7907;51.368;6.730;2022-12-07T05:45:10;3.92;;;2.55;;
15614;SDS011;7907;51.368;6.730;2022-12-07T05:47:37;7.63;;;4.43;;
15614;SDS011;7907;51.368;6.730;2022-12-07T05:50:05;4.60;;;3.00;;
15614;SDS011;7907;51.368;6.730;2022-12-07T05:52:33;7.15;;;4.25;;
15614;SDS011;7907;51.368;6.730;2022-12-07T05:55:00;4.50;;;3.30;;
15614;SDS011;7907;51.368;6.730;2022-12-07T05:57:27;4.37;;;3.20;;
15614;SDS011;7907;51.368;6.730;2022-12-07T05:59:56;4.32;;;2.67;;
15614;SDS011;7907;51.368;6.730;2022-12-07T06:02:21;4.07;;;2.50;;
15614;SDS011;7907;51.368;6.730;2022-12-07T06:04:48;2.80;;;2.25;;
15614;SDS011;7907;51.368;6.730;2022-12-07T06:07:15;2.00;;;1.67;;
15614;SDS011;7907;51.368;6.730;2022-12-07T06:09:43;4.25;;;3.28;;
15614;SDS011;7907;51.368;6.730;2022-12-07T06:12:10;4.47;;;2.60;;
15614;SDS011;7907;51.368;6.730;2022-12-07T06:14:57;5.82;;;2.75;;
15614;SDS011;7907;51.368;6.730;2022-12-07T06:17:24;4.65;;;2.53;;
15614;SDS011;7907;51.368;6.730;2022-12-07T06:19:52;5.30;;;3.28;;
15614;SDS011;7907;51.368;6.730;2022-12-07T06:22:19;7.30;;;3.15;;
15614;SDS011;7907;51.368;6.730;2022-12-07T06:24:46;8.07;;;2.77;;
15614;SDS011;7907;51.368;6.730;2022-12-07T06:27:13;2.60;;;2.08;;
15614;SDS011;7907;51.368;6.730;2022-12-07T06:29:40;5.38;;;3.00;;
15614;SDS011;7907;51.368;6.730;2022-12-07T06:32:09;3.50;;;2.72;;
15614;SDS011;7907;51.368;6.730;2022-12-07T06:34:36;4.03;;;2.80;;
15614;SDS011;7907;51.368;6.730;2022-12-07T06:37:04;5.25;;;2.50;;
15614;SDS011;7907;51.368;6.730;2022-12-07T06:39:31;14.77;;;3.37;;
15614;SDS011;7907;51.368;6.730;2022-12-07T06:41:58;11.98;;;4.00;;
15614;SDS011;7907;51.368;6.730;2022-12-07T06:44:25;7.55;;;2.67;;
15614;SDS011;7907;51.368;6.730;2022-12-07T06:46:52;8.95;;;3.10;;
15614;SDS011;7907;51.368;6.730;2022-12-07T06:49:21;3.67;;;2.97;;
15614;SDS011;7907;51.368;6.730;2022-12-07T06:51:48;6.30;;;2.95;;
15614;SDS011;7907;51.368;6.730;2022-12-07T06:54:15;4.67;;;3.30;;
15614;SDS011;7907;51.368;6.730;2022-12-07T06:56:43;7.65;;;2.80;;
15614;SDS011;7907;51.368;6.730;2022-12-07T06:59:10;6.32;;;2.50;;
15614;SDS011;7907;51.368;6.730;2022-12-07T07:01:37;3.38;;;2.10;;
15614;SDS011;7907;51.368;6.730;2022-12-07T07:04:04;5.23;;;2.97;;
15614;SDS011;7907;51.368;6.730;2022-12-07T07:06:32;5.80;;;2.72;;
15614;SDS011;7907;51.368;6.730;2022-12-07T07:09:00;6.95;;;2.90;;
15614;SDS011;7907;51.368;6.730;2022-12-07T07:11:29;3.37;;;2.77;;
15614;SDS011;7907;51.368;6.730;2022-12-07T07:13:56;6.13;;;3.13;;
15614;SDS011;7907;51.368;6.730;2022-12-07T07:16:27;3.33;;;2.70;;
15614;SDS011;7907;51.368;6.730;2022-12-07T07:18:55;4.70;;;3.65;;
15614;SDS011;7907;51.368;6.730;2022-12-07T07:21:22;3.33;;;3.03;;
15614;SDS011;7907;51.368;6.730;2022-12-07T07:23:51;3.08;;;2.10;;
15614;SDS011;7907;51.368;6.730;2022-12-07T07:26:18;2.63;;;2.33;;
15614;SDS011;7907;51.368;6.730;2022-12-07T07:28:45;5.13;;;2.28;;
15614;SDS011;7907;51.368;6.730;2022-12-07T07:31:12;4.88;;;2.95;;
15614;SDS011;7907;51.368;6.730;2022-12-07T07:33:39;4.05;;;3.20;;
15614;SDS011;7907;51.368;6.730;2022-12-07T07:36:06;5.07;;;3.60;;
15614;SDS011;7907;51.368;6.730;2022-12-07T07:38:34;4.05;;;2.60;;
15614;SDS011;7907;51.368;6.730;2022-12-07T07:41:02;4.82;;;2.83;;
15614;SDS011;7907;51.368;6.730;2022-12-07T07:43:29;8.60;;;4.40;;
15614;SDS011;7907;51.368;6.730;2022-12-07T07:45:57;4.00;;;2.83;;
15614;SDS011;7907;51.368;6.730;2022-12-07T07:48:24;9.95;;;3.85;;
15614;SDS011;7907;51.368;6.730;2022-12-07T07:50:51;2.53;;;2.10;;
15614;SDS011;7907;51.368;6.730;2022-12-07T07:53:18;7.53;;;3.30;;
15614;SDS011;7907;51.368;6.730;2022-12-07T07:55:50;2.45;;;2.15;;
15614;SDS011;7907;51.368;6.730;2022-12-07T07:58:20;3.47;;;2.97;;
15614;SDS011;7907;51.368;6.730;2022-12-07T08:00:47;3.88;;;2.78;;
15614;SDS011;7907;51.368;6.730;2022-12-07T08:03:14;6.55;;;3.63;;
15614;SDS011;7907;51.368;6.730;2022-12-07T08:05:42;3.42;;;2.97;;
15614;SDS011;7907;51.368;6.730;2022-12-07T08:08:09;3.63;;;2.47;;
15614;SDS011;7907;51.368;6.730;2022-12-07T08:10:36;7.40;;;2.63;;
15614;SDS011;7907;51.368;6.730;2022-12-07T08:13:03;5.53;;;2.77;;
15614;SDS011;7907;51.368;6.730;2022-12-07T08:15:41;5.72;;;2.65;;
15614;SDS011;7907;51.368;6.730;2022-12-07T08:18:11;3.00;;;2.35;;
15614;SDS011;7907;51.368;6.730;2022-12-07T08:20:39;4.45;;;2.60;;
15614;SDS011;7907;51.368;6.730;2022-12-07T08:23:08;2.88;;;2.28;;
15614;SDS011;7907;51.368;6.730;2022-12-07T08:25:36;5.95;;;1.95;;
15614;SDS011;7907;51.368;6.730;2022-12-07T08:28:03;1.85;;;1.50;;
15614;SDS011;7907;51.368;6.730;2022-12-07T08:30:31;5.22;;;2.13;;
15614;SDS011;7907;51.368;6.730;2022-12-07T08:32:59;4.65;;;2.42;;
15614;SDS011;7907;51.368;6.730;2022-12-07T08:35:27;6.72;;;2.63;;
15614;SDS011;7907;51.368;6.730;2022-12-07T08:37:54;5.15;;;3.15;;
15614;SDS011;7907;51.368;6.730;2022-12-07T08:40:23;2.78;;;2.58;;
15614;SDS011;7907;51.368;6.730;2022-12-07T08:42:50;4.00;;;2.40;;
15614;SDS011;7907;51.368;6.730;2022-12-07T08:45:18;1.57;;;1.47;;
15614;SDS011;7907;51.368;6.730;2022-12-07T08:47:46;5.40;;;2.13;;
15614;SDS011;7907;51.368;6.730;2022-12-07T08:50:20;5.63;;;3.10;;
15614;SDS011;7907;51.368;6.730;2022-12-07T08:52:48;10.57;;;4.97;;
15614;SDS011;7907;51.368;6.730;2022-12-07T08:55:25;4.68;;;3.10;;
15614;SDS011;7907;51.368;6.730;2022-12-07T08:57:53;4.90;;;2.92;;
15614;SDS011;7907;51.368;6.730;2022-12-07T09:00:20;3.60;;;2.00;;
15614;SDS011;7907;51.368;6.730;2022-12-07T09:02:48;7.18;;;2.78;;
15614;SDS011;7907;51.368;6.730;2022-12-07T09:05:15;5.80;;;3.63;;
15614;SDS011;7907;51.368;6.730;2022-12-07T09:07:44;9.43;;;3.25;;
15614;SDS011;7907;51.368;6.730;2022-12-07T09:10:15;9.45;;;3.55;;
15614;SDS011;7907;51.368;6.730;2022-12-07T09:12:42;8.93;;;3.55;;
15614;SDS011;7907;51.368;6.730;2022-12-07T09:15:09;6.90;;;3.78;;
15614;SDS011;7907;51.368;6.730;2022-12-07T09:17:36;6.88;;;2.38;;
15614;SDS011;7907;51.368;6.730;2022-12-07T09:20:04;5.32;;;2.58;;
15614;SDS011;7907;51.368;6.730;2022-12-07T09:22:32;3.90;;;2.38;;
15614;SDS011;7907;51.368;6.730;2022-12-07T09:25:01;2.83;;;2.42;;
15614;SDS011;7907;51.368;6.730;2022-12-07T09:27:29;5.38;;;3.38;;
15614;SDS011;7907;51.368;6.730;2022-12-07T09:29:56;6.28;;;2.42;;
15614;SDS011;7907;51.368;6.730;2022-12-07T09:32:23;5.32;;;2.83;;
15614;SDS011;7907;51.368;6.730;2022-12-07T09:34:50;2.08;;;1.40;;
15614;SDS011;7907;51.368;6.730;2022-12-07T09:37:17;15.80;;;2.70;;
15614;SDS011;7907;51.368;6.730;2022-12-07T09:39:44;3.05;;;2.58;;
15614;SDS011;7907;51.368;6.730;2022-12-07T09:42:17;9.45;;;3.88;;
15614;SDS011;7907;51.368;6.730;2022-12-07T09:44:53;4.30;;;2.37;;
15614;SDS011;7907;51.368;6.730;2022-12-07T09:47:20;7.50;;;2.67;;
15614;SDS011;7907;51.368;6.730;2022-12-07T09:49:48;4.15;;;1.95;;
15614;SDS011;7907;51.368;6.730;2022-12-07T09:52:17;3.75;;;2.08;;
15614;SDS011;7907;51.368;6.730;2022-12-07T09:54:48;4.75;;;2.88;;
15614;SDS011;7907;51.368;6.730;2022-12-07T09:57:18;6.90;;;2.13;;
15614;SDS011;7907;51.368;6.730;2022-12-07T09:59:48;2.42;;;2.20;;
15614;SDS011;7907;51.368;6.730;2022-12-07T10:02:21;4.35;;;1.75;;
15614;SDS011;7907;51.368;6.730;2022-12-07T10:04:51;4.43;;;2.65;;
15614;SDS011;7907;51.368;6.730;2022-12-07T10:07:18;4.90;;;2.70;;
15614;SDS011;7907;51.368;6.730;2022-12-07T10:09:48;3.08;;;1.98;;
15614;SDS011;7907;51.368;6.730;2022-12-07T10:12:24;3.60;;;3.00;;
15614;SDS011;7907;51.368;6.730;2022-12-07T10:14:55;3.08;;;2.78;;
15614;SDS011;7907;51.368;6.730;2022-12-07T10:17:30;3.58;;;1.85;;
15614;SDS011;7907;51.368;6.730;2022-12-07T10:20:12;1.95;;;1.75;;
15614;SDS011;7907;51.368;6.730;2022-12-07T10:22:53;2.50;;;2.20;;
15614;SDS011;7907;51.368;6.730;2022-12-07T10:25:22;5.20;;;2.37;;
15614;SDS011;7907;51.368;6.730;2022-12-07T10:28:00;4.17;;;2.50;;
15614;SDS011;7907;51.368;6.730;2022-12-07T10:30:46;3.30;;;1.77;;
15614;SDS011;7907;51.368;6.730;2022-12-07T10:33:27;4.10;;;2.42;;
15614;SDS011;7907;51.368;6.730;2022-12-07T10:35:59;4.07;;;2.47;;
15614;SDS011;7907;51.368;6.730;2022-12-07T10:38:43;2.95;;;2.17;;
15614;SDS011;7907;51.368;6.730;2022-12-07T10:41:12;2.10;;;1.70;;
15614;SDS011;7907;51.368;6.730;2022-12-07T10:43:49;7.97;;;2.00;;
15614;SDS011;7907;51.368;6.730;2022-12-07T10:49:42;2.20;;;1.80;;
15614;SDS011;7907;51.368;6.730;2022-12-07T10:55:33;4.05;;;1.90;;
15614;SDS011;7907;51.368;6.730;2022-12-07T10:58:18;1.92;;;1.73;;
15614;SDS011;7907;51.368;6.730;2022-12-07T11:00:58;3.97;;;3.23;;
15614;SDS011;7907;51.368;6.730;2022-12-07T11:03:44;3.90;;;3.05;;
15614;SDS011;7907;51.368;6.730;2022-12-07T11:06:22;4.10;;;1.80;;
15614;SDS011;7907;51.368;6.730;2022-12-07T11:09:00;2.90;;;1.80;;
15614;SDS011;7907;51.368;6.730;2022-12-07T11:11:42;7.85;;;1.95;;
15614;SDS011;7907;51.368;6.730;2022-12-07T11:14:19;1.88;;;1.67;;
15614;SDS011;7907;51.368;6.730;2022-12-07T11:16:55;1.50;;;1.35;;
15614;SDS011;7907;51.368;6.730;2022-12-07T11:19:32;6.63;;;3.60;;
15614;SDS011;7907;51.368;6.730;2022-12-07T11:22:11;2.13;;;1.43;;
15614;SDS011;7907;51.368;6.730;2022-12-07T11:24:45;7.57;;;2.72;;
15614;SDS011;7907;51.368;6.730;2022-12-07T11:27:22;2.95;;;1.95;;
15614;SDS011;7907;51.368;6.730;2022-12-07T11:29:59;1.95;;;1.13;;
15614;SDS011;7907;51.368;6.730;2022-12-07T11:32:44;2.33;;;1.20;;
15614;SDS011;7907;51.368;6.730;2022-12-07T11:35:20;1.77;;;1.40;;
15614;SDS011;7907;51.368;6.730;2022-12-07T11:37:57;2.60;;;1.20;;
15614;SDS011;7907;51.368;6.730;2022-12-07T11:40:29;1.33;;;0.88;;
15614;SDS011;7907;51.368;6.730;2022-12-07T11:43:01;0.83;;;0.83;;
15614;SDS011;7907;51.368;6.730;2022-12-07T11:45:34;0.95;;;0.93;;
15614;SDS011;7907;51.368;6.730;2022-12-07T11:48:06;1.55;;;1.45;;
15614;SDS011;7907;51.368;6.730;2022-12-07T11:50:41;4.00;;;1.88;;
15614;SDS011;7907;51.368;6.730;2022-12-07T11:53:14;0.65;;;0.65;;
15614;SDS011;7907;51.368;6.730;2022-12-07T11:55:49;1.70;;;0.80;;
15614;SDS011;7907;51.368;6.730;2022-12-07T11:58:21;1.40;;;1.23;;
15614;SDS011;7907;51.368;6.730;2022-12-07T12:00:58;1.55;;;0.95;;
15614;SDS011;7907;51.368;6.730;2022-12-07T12:03:37;2.90;;;1.30;;
15614;SDS011;7907;51.368;6.730;2022-12-07T12:06:08;1.00;;;0.60;;
15614;SDS011;7907;51.368;6.730;2022-12-07T12:08:36;0.85;;;0.85;;
15614;SDS011;7907;51.368;6.730;2022-12-07T12:11:09;6.23;;;1.67;;
15614;SDS011;7907;51.368;6.730;2022-12-07T12:14:03;5.30;;;1.83;;
15614;SDS011;7907;51.368;6.730;2022-12-07T12:16:55;2.95;;;1.98;;
15614;SDS011;7907;51.368;6.730;2022-12-07T12:19:35;3.78;;;1.50;;
15614;SDS011;7907;51.368;6.730;2022-12-07T12:22:10;6.72;;;4.22;;
15614;SDS011;7907;51.368;6.730;2022-12-07T12:24:41;2.65;;;1.42;;
15614;SDS011;7907;51.368;6.730;2022-12-07T12:27:15;4.30;;;1.15;;
15614;SDS011;7907;51.368;6.730;2022-12-07T12:29:50;1.70;;;0.88;;
15614;SDS011;7907;51.368;6.730;2022-12-07T12:32:20;3.88;;;1.15;;
15614;SDS011;7907;51.368;6.730;2022-12-07T12:35:00;0.80;;;0.50;;
15614;SDS011;7907;51.368;6.730;2022-12-07T12:37:38;1.67;;;0.67;;
15614;SDS011;7907;51.368;6.730;2022-12-07T12:46:36;0.38;;;0.38;;
15614;SDS011;7907;51.368;6.730;2022-12-07T12:49:24;0.55;;;0.55;;
15614;SDS011;7907;51.368;6.730;2022-12-07T12:55:21;0.73;;;0.47;;
15614;SDS011;7907;51.368;6.730;2022-12-07T13:10:21;8.13;;;3.10;;
15614;SDS011;7907;51.368;6.730;2022-12-07T13:13:03;2.20;;;1.25;;
15614;SDS011;7907;51.368;6.730;2022-12-07T13:15:51;1.67;;;1.23;;
15614;SDS011;7907;51.368;6.730;2022-12-07T13:18:24;1.60;;;1.30;;
15614;SDS011;7907;51.368;6.730;2022-12-07T13:21:01;3.72;;;1.83;;
15614;SDS011;7907;51.368;6.730;2022-12-07T13:23:29;8.50;;;1.75;;
15614;SDS011;7907;51.368;6.730;2022-12-07T13:26:05;13.82;;;1.40;;
15614;SDS011;7907;51.368;6.730;2022-12-07T13:28:41;19.70;;;2.67;;
15614;SDS011;7907;51.368;6.730;2022-12-07T13:31:20;1.25;;;1.00;;
15614;SDS011;7907;51.368;6.730;2022-12-07T13:33:55;1.73;;;1.08;;
15614;SDS011;7907;51.368;6.730;2022-12-07T13:36:22;4.03;;;1.67;;
15614;SDS011;7907;51.368;6.730;2022-12-07T13:38:52;0.80;;;0.80;;
15614;SDS011;7907;51.368;6.730;2022-12-07T13:41:22;4.00;;;1.63;;
15614;SDS011;7907;51.368;6.730;2022-12-07T13:43:58;3.72;;;0.55;;
15614;SDS011;7907;51.368;6.730;2022-12-07T13:46:31;0.60;;;0.52;;
15614;SDS011;7907;51.368;6.730;2022-12-07T13:49:15;1.30;;;0.98;;
15614;SDS011;7907;51.368;6.730;2022-12-07T13:51:47;0.70;;;0.70;;
15614;SDS011;7907;51.368;6.730;2022-12-07T13:54:15;2.95;;;2.45;;
15614;SDS011;7907;51.368;6.730;2022-12-07T13:56:46;6.25;;;1.70;;
15614;SDS011;7907;51.368;6.730;2022-12-07T13:59:16;1.57;;;0.90;;
15614;SDS011;7907;51.368;6.730;2022-12-07T14:01:46;0.37;;;0.37;;
15614;SDS011;7907;51.368;6.730;2022-12-07T14:07:00;4.00;;;1.10;;
15614;SDS011;7907;51.368;6.730;2022-12-07T14:09:52;7.78;;;2.95;;
15614;SDS011;7907;51.368;6.730;2022-12-07T14:12:22;4.28;;;1.90;;
15614;SDS011;7907;51.368;6.730;2022-12-07T14:14:50;1.65;;;1.55;;
15614;SDS011;7907;51.368;6.730;2022-12-07T14:17:20;1.08;;;0.85;;
15614;SDS011;7907;51.368;6.730;2022-12-07T14:19:50;0.40;;;0.40;;
15614;SDS011;7907;51.368;6.730;2022-12-07T14:22:27;0.60;;;0.35;;
15614;SDS011;7907;51.368;6.730;2022-12-07T14:30:51;1.88;;;1.17;;
15614;SDS011;7907;51.368;6.730;2022-12-07T14:33:18;1.85;;;0.73;;
15614;SDS011;7907;51.368;6.730;2022-12-07T14:35:47;0.65;;;0.55;;
15614;SDS011;7907;51.368;6.730;2022-12-07T14:38:14;3.00;;;0.98;;
15614;SDS011;7907;51.368;6.730;2022-12-07T14:40:43;2.60;;;0.90;;
15614;SDS011;7907;51.368;6.730;2022-12-07T14:43:12;0.73;;;0.70;;
15614;SDS011;7907;51.368;6.730;2022-12-07T14:45:42;0.90;;;0.85;;
15614;SDS011;7907;51.368;6.730;2022-12-07T14:48:10;0.50;;;0.50;;
15614;SDS011;7907;51.368;6.730;2022-12-07T14:50:40;13.02;;;1.17;;
15614;SDS011;7907;51.368;6.730;2022-12-07T14:53:09;1.33;;;0.57;;
15614;SDS011;7907;51.368;6.730;2022-12-07T14:55:39;0.40;;;0.40;;
15614;SDS011;7907;51.368;6.730;2022-12-07T14:58:06;4.60;;;1.42;;
15614;SDS011;7907;51.368;6.730;2022-12-07T15:00:39;3.95;;;1.60;;
15614;SDS011;7907;51.368;6.730;2022-12-07T15:03:07;0.55;;;0.55;;
15614;SDS011;7907;51.368;6.730;2022-12-07T15:05:34;3.50;;;0.60;;
15614;SDS011;7907;51.368;6.730;2022-12-07T15:08:02;4.00;;;1.20;;
15614;SDS011;7907;51.368;6.730;2022-12-07T15:10:30;1.15;;;1.05;;
15614;SDS011;7907;51.368;6.730;2022-12-07T15:12:59;2.10;;;1.17;;
15614;SDS011;7907;51.368;6.730;2022-12-07T15:15:42;2.30;;;1.27;;
15614;SDS011;7907;51.368;6.730;2022-12-07T15:18:09;2.15;;;1.35;;
15614;SDS011;7907;51.368;6.730;2022-12-07T15:20:36;1.88;;;0.82;;
15614;SDS011;7907;51.368;6.730;2022-12-07T15:23:04;6.35;;;1.15;;
15614;SDS011;7907;51.368;6.730;2022-12-07T15:25:31;2.83;;;1.27;;
15614;SDS011;7907;51.368;6.730;2022-12-07T15:27:59;1.65;;;1.35;;
15614;SDS011;7907;51.368;6.730;2022-12-07T15:30:26;7.63;;;3.65;;
15614;SDS011;7907;51.368;6.730;2022-12-07T15:32:54;7.55;;;3.63;;
15614;SDS011;7907;51.368;6.730;2022-12-07T15:35:26;3.03;;;2.13;;
15614;SDS011;7907;51.368;6.730;2022-12-07T15:37:53;3.00;;;1.88;;
15614;SDS011;7907;51.368;6.730;2022-12-07T15:40:20;3.80;;;2.97;;
15614;SDS011;7907;51.368;6.730;2022-12-07T15:42:47;4.28;;;1.20;;
15614;SDS011;7907;51.368;6.730;2022-12-07T15:45:14;3.20;;;1.50;;
15614;SDS011;7907;51.368;6.730;2022-12-07T15:47:40;9.82;;;1.90;;
15614;SDS011;7907;51.368;6.730;2022-12-07T15:50:14;5.28;;;1.58;;
15614;SDS011;7907;51.368;6.730;2022-12-07T15:52:42;6.10;;;1.40;;
15614;SDS011;7907;51.368;6.730;2022-12-07T15:55:09;4.85;;;2.45;;
15614;SDS011;7907;51.368;6.730;2022-12-07T15:57:37;4.13;;;1.85;;
15614;SDS011;7907;51.368;6.730;2022-12-07T16:00:05;2.33;;;1.33;;